Fort Shafter, Hawaii
Current Conditions -  °F | °C
As of 12:53 AM on Friday 19 Dec 2014 (Local Time) from PHNL Reporting Station
Broken Clouds Broken Clouds  
Wind Chill: 75°   Ceiling: 6500
Heat Index: 75°   Visibility: 10mi
Dew Point: 66°   Wind: 10mph
Humidity: 73%   Direction: 50°NE
Pressure: 30.13"   Gusts: NA
Location:  21.35°N, 157.87°W
Report Text: PHNL 191053Z 05009KT 10SM FEW031 SCT042 BKN065 24/19 A3013 RMK AO2 SLP201 T02390189
Loading
Personal Weather Stations






























Interactive Weather Map New forecast layout! Learn more

10-Day Weather Forecast

Advertisements
Track Severe Weather on mobile